Time;durP1;ratioP1;P1;durP2;ratioP2;P2;SDS_P1;SDS_P2;PMS_P1;PMS_P2;Temp;Humidity;BMP_temperature;BMP_pressure;BME280_temperature;BME280_humidity;BME280_pressure;Samples;Min_cycle;Max_cycle;Signal;HPM_P1;HPM_P2
2023/02/08 00:01:09;;;;;;;16.70;6.00;;;;;;;-5.95;100.00;103264.73;109271;1253;73825;-80
2023/02/08 00:03:58;;;;;;;11.10;5.90;;;;;;;-5.98;100.00;103268.11;109254;1253;59661;-81
2023/02/08 00:06:47;;;;;;;13.70;6.00;;;;;;;-5.96;100.00;103271.30;109247;1254;60037;-80
2023/02/08 00:09:36;;;;;;;13.20;6.20;;;;;;;-5.95;100.00;103276.22;109362;1252;74992;-81
2023/02/08 00:12:27;;;;;;;13.10;6.80;;;;;;;-5.99;100.00;103282.04;109376;1252;67890;-82
2023/02/08 00:15:15;;;;;;;15.30;6.40;;;;;;;-6.05;100.00;103282.73;109308;1253;71349;-81
2023/02/08 00:18:08;;;;;;;14.70;5.70;;;;;;;-6.00;100.00;103284.06;109245;1253;62612;-81
2023/02/08 00:20:57;;;;;;;14.10;6.40;;;;;;;-5.95;100.00;103285.11;109202;1255;60197;-81
2023/02/08 00:23:47;;;;;;;17.50;5.60;;;;;;;-5.93;100.00;103287.48;109277;1252;74576;-81
2023/02/08 00:26:36;;;;;;;15.80;6.60;;;;;;;-5.97;100.00;103286.63;109286;1252;68626;-81
2023/02/08 00:29:25;;;;;;;13.00;5.80;;;;;;;-6.08;100.00;103292.52;109334;1252;72802;-81
2023/02/08 00:32:14;;;;;;;17.30;5.90;;;;;;;-6.14;100.00;103289.04;109260;1253;61875;-81
2023/02/08 00:35:04;;;;;;;14.90;6.00;;;;;;;-6.12;100.00;103289.92;109209;1252;59697;-82
2023/02/08 00:37:53;;;;;;;16.70;6.60;;;;;;;-6.11;100.00;103291.66;109192;1255;76763;-81
2023/02/08 00:40:42;;;;;;;15.00;5.20;;;;;;;-6.18;100.00;103292.27;109240;1253;68865;-81
2023/02/08 00:43:31;;;;;;;11.50;5.70;;;;;;;-6.14;100.00;103290.76;109300;1253;70372;-81
2023/02/08 00:46:20;;;;;;;13.30;5.70;;;;;;;-6.13;100.00;103287.73;109359;1252;61544;-81
2023/02/08 00:49:10;;;;;;;10.50;5.60;;;;;;;-6.13;100.00;103298.18;109368;1252;62485;-83
2023/02/08 00:51:58;;;;;;;15.30;5.10;;;;;;;-6.12;100.00;103303.41;109177;1253;75796;-81
2023/02/08 00:54:48;;;;;;;15.00;5.80;;;;;;;-6.12;100.00;103306.06;109215;1253;69468;-82
2023/02/08 00:57:36;;;;;;;16.70;6.40;;;;;;;-6.17;100.00;103312.06;109290;1253;73020;-81
2023/02/08 01:00:25;;;;;;;11.30;5.30;;;;;;;-6.26;100.00;103315.69;109318;1253;61030;-81
2023/02/08 01:03:14;;;;;;;16.90;6.40;;;;;;;-6.32;100.00;103313.59;109346;1253;59644;-81
2023/02/08 01:06:16;;;;;;;12.90;6.00;;;;;;;-6.36;100.00;103317.93;109399;1252;72688;-81
2023/02/08 01:09:05;;;;;;;18.00;7.20;;;;;;;-6.40;100.00;103326.39;109429;1255;69231;-81
2023/02/08 01:11:55;;;;;;;18.20;6.20;;;;;;;-6.42;100.00;103327.91;109460;1251;71748;-81
2023/02/08 01:14:44;;;;;;;18.10;7.50;;;;;;;-6.43;100.00;103331.54;109398;1251;61494;-81
2023/02/08 01:17:32;;;;;;;13.80;6.20;;;;;;;-6.45;100.00;103337.65;109327;1253;60625;-81
2023/02/08 01:20:22;;;;;;;12.80;6.00;;;;;;;-6.44;100.00;103338.52;109289;1253;75055;-81
2023/02/08 01:23:10;;;;;;;19.30;7.20;;;;;;;-6.46;100.00;103332.98;109216;1253;67731;-81
2023/02/08 01:25:59;;;;;;;12.90;5.60;;;;;;;-6.49;100.00;103341.12;109219;1253;70768;-81
2023/02/08 01:28:48;;;;;;;16.20;7.20;;;;;;;-6.53;100.00;103342.80;109338;1252;60227;-81
2023/02/08 01:31:38;;;;;;;15.90;6.50;;;;;;;-6.56;100.00;103345.98;109355;1252;59213;-81
2023/02/08 01:34:27;;;;;;;15.10;6.70;;;;;;;-6.56;100.00;103348.27;109236;1253;72677;-81
2023/02/08 01:37:15;;;;;;;18.20;6.20;;;;;;;-6.54;100.00;103350.47;109381;1252;67812;-81
2023/02/08 01:40:05;;;;;;;16.40;6.30;;;;;;;-6.53;100.00;103347.05;109410;1252;71371;-81
2023/02/08 01:42:53;;;;;;;11.70;5.60;;;;;;;-6.60;100.00;103354.19;109402;1252;62309;-81
2023/02/08 01:45:47;;;;;;;16.90;6.50;;;;;;;-6.64;100.00;103352.69;109183;1253;59898;-81
2023/02/08 01:48:38;;;;;;;16.30;7.60;;;;;;;-6.68;100.00;103353.11;109283;1253;72081;-81
2023/02/08 01:51:29;;;;;;;17.30;7.10;;;;;;;-6.77;100.00;103360.42;109242;1253;67700;-81
2023/02/08 01:54:18;;;;;;;18.40;4.80;;;;;;;-6.84;100.00;103371.09;109042;1252;71836;-81
2023/02/08 01:57:07;;;;;;;13.20;6.00;;;;;;;-6.89;100.00;103369.32;109250;1251;59359;-81
2023/02/08 02:00:16;;;;;;;13.50;5.90;;;;;;;-6.90;100.00;103370.93;109215;1251;60704;-81
2023/02/08 02:03:05;;;;;;;13.10;7.20;;;;;;;-6.91;100.00;103377.56;109166;1253;72725;-81
2023/02/08 02:06:02;;;;;;;12.20;5.60;;;;;;;-6.84;100.00;103377.16;109031;1253;69524;-81
2023/02/08 02:09:15;;;;;;;14.10;6.50;;;;;;;-6.79;100.00;103382.90;109308;1253;72796;-81
2023/02/08 02:12:06;;;;;;;17.50;6.20;;;;;;;-6.81;100.00;103388.98;109321;1252;63178;-81
2023/02/08 02:14:55;;;;;;;14.80;6.30;;;;;;;-6.89;100.00;103389.85;109022;1253;61187;-81
2023/02/08 02:17:44;;;;;;;18.00;6.80;;;;;;;-6.94;100.00;103394.20;109337;1253;72617;-81
2023/02/08 02:20:40;;;;;;;17.00;7.50;;;;;;;-6.96;100.00;103395.77;109277;1253;68923;-81
2023/02/08 02:24:07;;;;;;;18.10;7.20;;;;;;;-6.97;100.00;103395.13;109308;1253;73111;-81
2023/02/08 02:27:12;;;;;;;17.20;6.50;;;;;;;-6.97;100.00;103402.17;109320;1252;60165;-81
2023/02/08 02:30:07;;;;;;;18.20;6.90;;;;;;;-6.96;100.00;103410.44;109197;1253;61008;-81
2023/02/08 02:33:12;;;;;;;13.90;6.40;;;;;;;-6.96;100.00;103421.30;109310;1253;74739;-81
2023/02/08 02:36:10;;;;;;;20.40;8.10;;;;;;;-6.94;100.00;103429.13;109282;1253;69275;-81
2023/02/08 02:39:21;;;;;;;17.80;8.20;;;;;;;-6.89;100.00;103433.67;109245;1252;71929;-81
2023/02/08 02:45:56;;;;;;;13.00;6.50;;;;;;;-6.77;100.00;103433.45;109177;1253;61521;-81
2023/02/08 02:49:03;;;;;;;15.10;6.20;;;;;;;-6.76;100.00;103436.74;109329;1252;74077;-81
2023/02/08 02:52:05;;;;;;;14.40;5.70;;;;;;;-6.74;100.00;103437.70;109328;1253;69746;-83
2023/02/08 02:54:54;;;;;;;15.80;6.60;;;;;;;-6.83;100.00;103446.23;109198;1253;72455;-82
2023/02/08 02:57:43;;;;;;;16.00;7.00;;;;;;;-6.85;100.00;103458.26;109116;1256;60115;-82
2023/02/08 03:00:33;;;;;;;17.60;7.10;;;;;;;-6.87;100.00;103459.06;109199;1251;59072;-82
2023/02/08 03:03:23;;;;;;;18.60;6.60;;;;;;;-6.92;100.00;103458.45;109359;1253;74489;-81
2023/02/08 03:06:14;;;;;;;19.00;6.50;;;;;;;-6.92;100.00;103459.71;109320;1252;69819;-80
2023/02/08 03:09:19;;;;;;;17.40;7.30;;;;;;;-6.90;100.00;103471.66;109087;1253;73017;-81
2023/02/08 03:12:21;;;;;;;22.60;9.40;;;;;;;-6.93;100.00;103469.30;109099;1253;59199;-80
2023/02/08 03:15:46;;;;;;;18.90;6.90;;;;;;;-7.03;100.00;103465.86;109354;1253;60610;-81
2023/02/08 03:18:41;;;;;;;19.90;7.70;;;;;;;-7.08;100.00;103462.73;109166;1255;75205;-81
2023/02/08 03:21:54;;;;;;;14.30;6.40;;;;;;;-7.11;100.00;103466.35;109112;1253;69074;-80
2023/02/08 03:24:46;;;;;;;;;;;;;;;-7.10;100.00;103465.20;109296;1253;72276;-80
2023/02/08 03:27:37;;;;;;;19.40;8.10;;;;;;;-7.16;100.00;103472.27;109154;1256;61419;-80
2023/02/08 03:30:45;;;;;;;17.00;7.10;;;;;;;-7.14;100.00;103480.14;109370;1252;62295;-81
2023/02/08 03:33:56;;;;;;;15.10;6.20;;;;;;;-7.13;100.00;103478.48;109275;1252;74862;-80
2023/02/08 03:37:16;;;;;;;14.50;6.60;;;;;;;-7.13;100.00;103482.39;109404;1253;68509;-80
2023/02/08 03:40:26;;;;;;;16.90;7.10;;;;;;;-7.20;100.00;103479.23;109243;1253;72707;-80
2023/02/08 03:43:36;;;;;;;17.50;6.90;;;;;;;-7.23;100.00;103480.48;109085;1253;60416;-80
2023/02/08 03:46:30;;;;;;;21.40;8.80;;;;;;;-7.29;100.00;103482.05;109268;1253;60494;-80
2023/02/08 03:49:29;;;;;;;15.10;7.20;;;;;;;-7.31;100.00;103486.27;109205;1252;74623;-80
2023/02/08 03:52:18;;;;;;;15.80;6.20;;;;;;;-7.40;100.00;103484.77;109141;1254;69094;-81
2023/02/08 03:55:12;;;;;;;20.80;7.00;;;;;;;-7.39;100.00;103483.84;109274;1255;73035;-81
2023/02/08 03:58:10;;;;;;;12.10;5.80;;;;;;;-7.43;100.00;103483.39;109147;1253;59828;-80
2023/02/08 04:01:05;;;;;;;15.70;7.40;;;;;;;-7.47;100.00;103489.28;109158;1253;60894;-80
2023/02/08 04:03:55;;;;;;;19.60;7.60;;;;;;;-7.50;100.00;103498.13;109058;1253;74590;-80
2023/02/08 04:06:44;;;;;;;20.00;7.30;;;;;;;-7.50;100.00;103502.73;109192;1253;69086;-81
2023/02/08 04:09:32;;;;;;;17.30;7.80;;;;;;;-7.56;100.00;103499.85;109367;1253;71904;-81
2023/02/08 04:12:21;;;;;;;17.90;7.20;;;;;;;-7.62;100.00;103505.73;109166;1255;60020;-81
2023/02/08 04:15:10;;;;;;;17.90;7.60;;;;;;;-7.69;100.00;103507.85;109355;1253;60514;-81
2023/02/08 04:17:59;;;;;;;19.70;7.70;;;;;;;-7.70;100.00;103507.02;109315;1253;74551;-80
2023/02/08 04:20:48;;;;;;;18.90;6.80;;;;;;;-7.71;100.00;103512.23;109312;1253;67492;-81
2023/02/08 04:23:37;;;;;;;25.00;8.60;;;;;;;-7.69;100.00;103516.20;109403;1253;71632;-81
2023/02/08 04:26:26;;;;;;;16.70;7.20;;;;;;;-7.63;100.00;103519.40;109308;1252;62096;-81
2023/02/08 04:29:14;;;;;;;18.90;7.80;;;;;;;-7.61;100.00;103524.77;109382;1253;58936;-81
2023/02/08 04:32:03;;;;;;;19.30;8.20;;;;;;;-7.67;100.00;103535.39;109330;1253;75853;-81
2023/02/08 04:34:52;;;;;;;18.80;7.40;;;;;;;-7.70;100.00;103539.98;109326;1253;69991;-81
2023/02/08 04:37:42;;;;;;;17.70;6.20;;;;;;;-7.78;100.00;103546.92;109358;1253;73175;-81
2023/02/08 04:40:30;;;;;;;23.40;8.20;;;;;;;-7.88;100.00;103552.95;109374;1253;58950;-81
2023/02/08 04:43:19;;;;;;;19.10;6.50;;;;;;;-7.88;100.00;103554.36;109362;1252;60575;-81
2023/02/08 04:46:08;;;;;;;18.60;7.20;;;;;;;-7.86;100.00;103550.04;109343;1252;75289;-81
2023/02/08 04:48:57;;;;;;;40.90;14.00;;;;;;;-7.90;100.00;103556.05;109322;1253;66745;-81
2023/02/08 04:51:46;;;;;;;36.80;13.00;;;;;;;-7.94;100.00;103558.42;109314;1253;73064;-81
2023/02/08 04:54:35;;;;;;;51.10;18.20;;;;;;;-7.93;100.00;103565.29;109229;1253;62889;-81
2023/02/08 04:57:24;;;;;;;49.70;16.10;;;;;;;-7.91;100.00;103576.51;109334;1253;59580;-81
2023/02/08 05:00:13;;;;;;;42.90;13.90;;;;;;;-7.92;100.00;103580.77;109264;1253;73699;-81
2023/02/08 05:03:01;;;;;;;24.80;9.00;;;;;;;-7.89;100.00;103579.20;109353;1253;68591;-81
2023/02/08 05:05:57;;;;;;;21.10;8.70;;;;;;;-7.86;100.00;103575.31;109331;1253;72556;-81
2023/02/08 05:08:46;;;;;;;33.10;10.50;;;;;;;-7.82;100.00;103576.72;109317;1253;61271;-82
2023/02/08 05:11:35;;;;;;;23.80;8.80;;;;;;;-7.82;100.00;103582.20;109366;1251;59829;-82
2023/02/08 05:14:23;;;;;;;27.80;10.50;;;;;;;-7.81;100.00;103585.65;109401;1252;72715;-82
2023/02/08 05:17:12;;;;;;;31.80;12.40;;;;;;;-7.84;100.00;103597.88;109391;1253;68835;-82
2023/02/08 05:20:02;;;;;;;33.90;11.90;;;;;;;-7.89;100.00;103602.92;109359;1252;73413;-82
2023/02/08 05:22:50;;;;;;;37.60;13.50;;;;;;;-7.92;100.00;103603.95;109325;1251;59560;-81
2023/02/08 05:25:40;;;;;;;38.30;10.90;;;;;;;-7.93;100.00;103611.12;109185;1253;60841;-82
2023/02/08 05:28:29;;;;;;;36.10;13.00;;;;;;;-7.89;100.00;103612.84;109383;1252;75071;-81
2023/02/08 05:31:19;;;;;;;49.00;15.40;;;;;;;-7.86;100.00;103615.49;109144;1253;67714;-81
2023/02/08 05:34:11;;;;;;;32.50;12.70;;;;;;;-7.86;100.00;103621.54;109382;1252;72668;-81
2023/02/08 05:37:00;;;;;;;28.50;12.80;;;;;;;-7.82;100.00;103625.75;109322;1252;61167;-81
2023/02/08 05:39:48;;;;;;;27.10;10.30;;;;;;;-7.79;100.00;103627.52;109418;1252;61351;-82
2023/02/08 05:42:37;;;;;;;18.60;8.30;;;;;;;-7.74;100.00;103628.66;109399;1253;75025;-82
2023/02/08 05:45:26;;;;;;;26.50;10.60;;;;;;;-7.73;100.00;103633.77;109398;1252;68527;-81
2023/02/08 05:48:14;;;;;;;29.50;9.80;;;;;;;-7.73;100.00;103639.61;109341;1252;72945;-82
2023/02/08 05:51:03;;;;;;;33.20;11.10;;;;;;;-7.67;100.00;103645.48;109324;1253;59729;-81
2023/02/08 05:53:52;;;;;;;29.50;9.50;;;;;;;-7.63;100.00;103645.30;109351;1253;60641;-82
2023/02/08 05:56:41;;;;;;;26.20;10.60;;;;;;;-7.56;100.00;103651.80;109350;1253;75573;-81
2023/02/08 05:59:30;;;;;;;21.00;8.40;;;;;;;-7.46;100.00;103654.08;109422;1252;69258;-82
2023/02/08 06:02:18;;;;;;;28.80;9.70;;;;;;;-7.40;100.00;103655.35;109336;1252;74323;-82
2023/02/08 06:05:07;;;;;;;24.30;10.40;;;;;;;-7.40;100.00;103658.53;109269;1253;62407;-81
2023/02/08 06:07:56;;;;;;;18.80;8.50;;;;;;;-7.34;100.00;103662.13;109364;1255;59790;-82
2023/02/08 06:10:47;;;;;;;27.70;12.80;;;;;;;-7.24;100.00;103666.04;109347;1254;75088;-81
2023/02/08 06:13:36;;;;;;;27.90;8.40;;;;;;;-7.20;100.00;103666.52;109200;1253;68788;-81
2023/02/08 06:16:25;;;;;;;24.70;10.80;;;;;;;-7.19;100.00;103662.94;109330;1253;71313;-82
2023/02/08 06:19:14;;;;;;;18.00;9.20;;;;;;;-7.15;100.00;103666.40;109312;1253;59270;-82
2023/02/08 06:22:03;;;;;;;30.90;12.60;;;;;;;-7.11;100.00;103667.62;109303;1253;59161;-81
2023/02/08 06:24:52;;;;;;;26.60;10.50;;;;;;;-7.08;100.00;103671.89;109350;1251;72734;-81
2023/02/08 06:27:43;;;;;;;20.30;7.90;;;;;;;-7.12;100.00;103674.23;109346;1252;69682;-82
2023/02/08 06:30:33;;;;;;;22.80;11.00;;;;;;;-7.11;100.00;103674.73;109262;1252;73623;-82
2023/02/08 06:33:21;;;;;;;23.50;9.80;;;;;;;-7.07;100.00;103672.17;109912;1244;62058;-82
2023/02/08 06:36:11;;;;;;;23.10;9.90;;;;;;;-6.97;100.00;103672.33;109867;1246;58851;-82
2023/02/08 06:38:59;;;;;;;30.00;12.00;;;;;;;-6.81;100.00;103668.59;109864;1246;75810;-82
2023/02/08 06:41:48;;;;;;;25.10;9.60;;;;;;;-6.71;100.00;103670.88;109808;1247;69756;-82
2023/02/08 06:44:37;;;;;;;21.40;8.60;;;;;;;-6.59;100.00;103668.42;109716;1246;72614;-82
2023/02/08 06:47:35;;;;;;;26.70;10.50;;;;;;;-6.56;100.00;103663.81;109701;1249;59007;-82
2023/02/08 06:50:23;;;;;;;26.00;10.80;;;;;;;-6.51;100.00;103663.87;109921;1246;59335;-82
2023/02/08 06:53:12;;;;;;;18.80;8.50;;;;;;;-6.47;100.00;103664.87;109866;1246;72563;-82
2023/02/08 06:56:01;;;;;;;23.20;9.70;;;;;;;-6.43;100.00;103663.10;109743;1246;68709;-82
2023/02/08 06:58:50;;;;;;;20.20;8.40;;;;;;;-6.31;100.00;103660.75;109863;1247;72899;-82
2023/02/08 07:01:38;;;;;;;20.30;8.10;;;;;;;-6.14;100.00;103661.55;109854;1246;62258;-83
2023/02/08 07:04:27;;;;;;;19.20;8.50;;;;;;;-5.98;100.00;103660.59;109882;1247;62448;-82
2023/02/08 07:07:17;;;;;;;18.10;9.20;;;;;;;-5.93;100.00;103665.27;109878;1246;73391;-83
2023/02/08 07:10:06;;;;;;;27.80;9.80;;;;;;;-5.91;100.00;103667.78;109749;1247;70040;-83
2023/02/08 07:12:54;;;;;;;26.00;9.40;;;;;;;-5.80;100.00;103666.55;109806;1246;72597;-82
2023/02/08 07:15:43;;;;;;;21.70;8.60;;;;;;;-5.72;100.00;103671.23;109940;1245;60444;-82
2023/02/08 07:18:33;;;;;;;18.80;8.40;;;;;;;-5.59;100.00;103668.33;109921;1245;60938;-82
2023/02/08 07:21:21;;;;;;;21.60;9.00;;;;;;;-5.53;100.00;103673.09;109885;1246;75030;-83
2023/02/08 07:24:11;;;;;;;23.00;8.40;;;;;;;-5.44;100.00;103678.77;109751;1245;68690;-83
2023/02/08 07:27:00;;;;;;;20.10;7.40;;;;;;;-5.42;100.00;103686.63;109851;1246;71380;-83
2023/02/08 07:29:49;;;;;;;24.60;8.60;;;;;;;-5.39;100.00;103699.40;109631;1249;60229;-82
2023/02/08 07:32:38;;;;;;;24.90;8.50;;;;;;;-5.32;100.00;103695.98;109912;1247;58979;-83
2023/02/08 07:35:27;;;;;;;20.00;8.90;;;;;;;-5.18;100.00;103694.55;109820;1250;75080;-83
2023/02/08 07:38:17;;;;;;;22.40;7.60;;;;;;;-5.09;100.00;103701.27;109860;1245;69878;-83
2023/02/08 07:41:11;;;;;;;25.20;8.20;;;;;;;-5.06;100.00;103693.64;109824;1246;71420;-82
2023/02/08 07:44:00;;;;;;;22.80;8.80;;;;;;;-4.92;100.00;103695.59;109877;1246;59873;-84
2023/02/08 07:46:49;;;;;;;20.80;9.10;;;;;;;-4.84;100.00;103696.48;109903;1245;59408;-83
2023/02/08 07:49:38;;;;;;;27.10;10.30;;;;;;;-4.75;100.00;103696.82;109901;1249;73641;-83
2023/02/08 07:52:27;;;;;;;20.50;9.10;;;;;;;-4.69;100.00;103701.58;109778;1247;67626;-83
2023/02/08 07:55:16;;;;;;;22.20;9.60;;;;;;;-4.75;100.00;103703.38;109846;1246;71332;-84
2023/02/08 07:58:06;;;;;;;20.10;8.70;;;;;;;-4.74;100.00;103699.45;109846;1246;60509;-83
2023/02/08 08:00:55;;;;;;;17.20;6.80;;;;;;;-4.74;100.00;103697.77;109839;1247;58976;-84
2023/02/08 08:03:43;;;;;;;26.20;8.20;;;;;;;-4.63;100.00;103695.70;109965;1246;75356;-84
2023/02/08 08:06:32;;;;;;;20.90;7.40;;;;;;;-4.57;100.00;103695.83;109906;1247;69861;-84
2023/02/08 08:09:23;;;;;;;15.90;6.90;;;;;;;-4.50;100.00;103690.75;109713;1247;72925;-84
2023/02/08 08:12:11;;;;;;;17.60;8.70;;;;;;;-4.42;100.00;103686.13;109888;1247;60496;-83
2023/02/08 08:15:01;;;;;;;18.50;8.10;;;;;;;-4.29;100.00;103687.73;109901;1247;58918;-84
2023/02/08 08:17:50;;;;;;;20.00;9.30;;;;;;;-4.19;100.00;103685.10;109873;1246;75888;-84
2023/02/08 08:20:39;;;;;;;22.40;9.00;;;;;;;-4.16;100.00;103680.99;109882;1247;67510;-84
2023/02/08 08:23:28;;;;;;;21.10;9.20;;;;;;;-4.16;100.00;103681.69;109835;1247;71431;-84
2023/02/08 08:26:18;;;;;;;21.30;7.50;;;;;;;-4.23;100.00;103684.13;109867;1249;60940;-85
2023/02/08 08:29:07;;;;;;;20.10;8.70;;;;;;;-4.19;100.00;103690.80;109862;1248;60584;-84
2023/02/08 08:31:56;;;;;;;22.80;8.60;;;;;;;-4.11;100.00;103685.46;109967;1247;73402;-84
2023/02/08 08:34:52;;;;;;;21.90;8.70;;;;;;;-3.97;100.00;103685.55;109869;1248;69672;-83
2023/02/08 08:37:42;;;;;;;21.30;8.60;;;;;;;-3.79;100.00;103688.14;109813;1247;71676;-84
2023/02/08 08:40:31;;;;;;;15.90;7.00;;;;;;;-3.74;100.00;103694.34;109885;1247;60548;-84
2023/02/08 08:43:20;;;;;;;22.80;7.90;;;;;;;-3.77;100.00;103694.36;109866;1246;60677;-84
2023/02/08 08:46:09;;;;;;;17.80;7.70;;;;;;;-3.72;100.00;103696.04;109866;1246;74617;-84
2023/02/08 08:48:58;;;;;;;19.10;7.70;;;;;;;-3.70;100.00;103693.01;109845;1246;69617;-84
2023/02/08 08:51:47;;;;;;;21.90;8.50;;;;;;;-3.65;100.00;103695.14;109814;1246;73235;-84
2023/02/08 08:54:35;;;;;;;21.80;8.70;;;;;;;-3.49;100.00;103692.28;109918;1246;59066;-83
2023/02/08 08:57:24;;;;;;;12.80;6.20;;;;;;;-3.29;100.00;103697.42;109908;1246;59638;-83
2023/02/08 09:00:13;;;;;;;14.70;7.40;;;;;;;-3.24;100.00;103699.98;109828;1246;74965;-84
2023/02/08 09:03:02;;;;;;;20.30;7.10;;;;;;;-3.20;100.00;103697.20;109845;1247;69418;-83
2023/02/08 09:05:51;;;;;;;20.60;8.70;;;;;;;-3.10;100.00;103703.39;109806;1246;73130;-84
2023/02/08 09:08:39;;;;;;;22.80;7.70;;;;;;;-3.04;100.00;103699.42;109840;1247;60304;-84
2023/02/08 09:11:28;;;;;;;14.30;5.90;;;;;;;-3.01;100.00;103697.94;109930;1247;60616;-84
2023/02/08 09:14:17;;;;;;;19.50;7.40;;;;;;;-2.85;100.00;103703.60;109923;1245;74078;-84
2023/02/08 09:17:07;;;;;;;15.40;6.70;;;;;;;-2.88;100.00;103693.84;110055;1246;68074;-84
2023/02/08 09:19:56;;;;;;;20.50;8.20;;;;;;;-2.80;100.00;103688.40;109814;1246;73029;-84
2023/02/08 09:22:45;;;;;;;19.80;8.50;;;;;;;-2.77;100.00;103685.55;109917;1249;59597;-84
2023/02/08 09:25:35;;;;;;;13.90;6.40;;;;;;;-2.71;100.00;103682.98;109894;1247;60779;-84
2023/02/08 09:28:25;;;;;;;20.80;7.60;;;;;;;-2.68;100.00;103685.23;109826;1248;74305;-84
2023/02/08 09:31:36;;;;;;;18.30;7.50;;;;;;;-2.70;100.00;103680.17;109858;1245;69599;-84
2023/02/08 09:34:26;;;;;;;21.80;8.20;;;;;;;-2.65;100.00;103679.11;109888;1248;71713;-84
2023/02/08 09:37:16;;;;;;;16.90;7.20;;;;;;;-2.62;100.00;103673.70;109881;1246;60595;-84
2023/02/08 09:40:05;;;;;;;17.40;7.00;;;;;;;-2.49;100.00;103671.83;109832;1250;61018;-84
2023/02/08 09:43:00;;;;;;;20.80;8.60;;;;;;;-2.43;100.00;103670.17;109979;1244;74642;-84
2023/02/08 09:46:04;;;;;;;22.90;9.20;;;;;;;-2.43;100.00;103669.80;109819;1247;67551;-84
2023/02/08 09:48:55;;;;;;;17.60;7.50;;;;;;;-2.39;100.00;103670.02;109817;1246;73235;-85
2023/02/08 09:51:52;;;;;;;18.40;7.30;;;;;;;-2.25;100.00;103667.51;109801;1250;60320;-84
2023/02/08 09:54:44;;;;;;;18.10;6.60;;;;;;;-2.17;100.00;103664.59;109843;1246;60236;-83
2023/02/08 09:57:33;;;;;;;19.30;8.40;;;;;;;-2.13;100.00;103657.59;109832;1250;72621;-85
2023/02/08 10:00:49;;;;;;;18.70;6.10;;;;;;;-2.06;100.00;103654.37;109838;1251;68816;-84
2023/02/08 10:03:40;;;;;;;19.70;7.80;;;;;;;-2.01;100.00;103654.80;109843;1248;71416;-84
2023/02/08 10:06:29;;;;;;;17.30;7.20;;;;;;;-1.89;100.00;103653.52;109763;1250;61295;-84
2023/02/08 10:09:21;;;;;;;16.00;6.20;;;;;;;-1.85;100.00;103657.30;109849;1248;59658;-84
2023/02/08 10:12:20;;;;;;;18.00;8.10;;;;;;;-1.76;100.00;103653.63;109751;1250;74235;-84
2023/02/08 10:15:27;;;;;;;24.70;9.00;;;;;;;-1.64;100.00;103651.06;109844;1246;68622;-84
2023/02/08 10:18:23;;;;;;;18.70;8.20;;;;;;;-1.54;100.00;103653.14;109904;1247;71086;-85
2023/02/08 10:21:18;;;;;;;15.60;6.10;;;;;;;-1.49;100.00;103650.41;109721;1247;61820;-84
2023/02/08 10:24:40;;;;;;;14.70;5.90;;;;;;;-1.45;100.00;103650.48;109921;1248;60282;-84
2023/02/08 10:27:44;;;;;;;18.80;8.50;;;;;;;-1.41;100.00;103651.39;109912;1247;76148;-84
2023/02/08 10:30:53;;;;;;;17.90;7.70;;;;;;;-1.32;100.00;103647.81;109943;1245;71218;-84
2023/02/08 10:33:46;;;;;;;18.40;7.60;;;;;;;-1.27;100.00;103649.58;109847;1248;71245;-84
2023/02/08 10:36:40;;;;;;;19.60;7.60;;;;;;;-1.21;100.00;103650.86;109934;1246;59253;-83
2023/02/08 10:39:31;;;;;;;17.00;7.50;;;;;;;-1.23;100.00;103653.36;110123;1247;60287;-84
2023/02/08 10:42:25;;;;;;;17.90;7.80;;;;;;;-1.16;100.00;103656.59;109862;1247;75844;-85
2023/02/08 10:45:27;;;;;;;12.50;6.00;;;;;;;-1.08;100.00;103660.44;109799;1247;69441;-84
2023/02/08 10:48:30;;;;;;;23.20;9.60;;;;;;;-1.01;100.00;103660.74;110030;1246;72302;-84
2023/02/08 10:51:20;;;;;;;17.60;7.00;;;;;;;-1.02;100.00;103663.33;109990;1246;59017;-84
2023/02/08 10:54:11;;;;;;;23.80;8.90;;;;;;;-1.01;100.00;103660.34;109824;1247;60975;-84
2023/02/08 10:57:03;;;;;;;24.40;9.60;;;;;;;-0.97;100.00;103654.67;109862;1245;75030;-84
2023/02/08 11:00:00;;;;;;;19.30;8.40;;;;;;;-0.93;100.00;103657.06;109677;1247;67584;-83
2023/02/08 11:02:50;;;;;;;14.90;5.70;;;;;;;-0.93;100.00;103656.34;109793;1245;71895;-84
2023/02/08 11:05:40;;;;;;;15.90;6.30;;;;;;;-0.92;100.00;103661.07;109740;1248;60673;-84
2023/02/08 11:08:30;;;;;;;12.50;5.10;;;;;;;-0.98;100.00;103657.83;109994;1245;60392;-84
2023/02/08 11:11:19;;;;;;;13.30;4.80;;;;;;;-0.92;100.00;103651.41;109877;1246;75916;-84
2023/02/08 11:14:12;;;;;;;56.30;21.70;;;;;;;-0.87;100.00;103647.62;109801;1248;68632;-84
2023/02/08 11:17:01;;;;;;;14.60;6.40;;;;;;;-0.82;100.00;103643.98;109653;1246;72271;-84
2023/02/08 11:19:50;;;;;;;9.10;3.90;;;;;;;-0.73;100.00;103644.45;109907;1245;58947;-84
2023/02/08 11:22:41;;;;;;;12.30;4.80;;;;;;;-0.75;100.00;103642.36;109815;1245;59991;-84
2023/02/08 11:25:35;;;;;;;10.60;3.70;;;;;;;-0.74;100.00;103637.08;109684;1248;75116;-84
2023/02/08 11:28:29;;;;;;;11.90;5.40;;;;;;;-0.64;99.99;103639.07;109892;1247;67987;-84
2023/02/08 11:31:19;;;;;;;9.90;4.70;;;;;;;-0.71;100.00;103640.92;109956;1248;73064;-85
2023/02/08 11:34:10;;;;;;;13.20;4.50;;;;;;;-0.70;100.00;103640.31;109844;1248;60849;-85
2023/02/08 11:37:03;;;;;;;12.60;5.30;;;;;;;-0.72;100.00;103644.58;109908;1246;60072;-84
2023/02/08 11:39:59;;;;;;;15.00;5.80;;;;;;;-0.72;100.00;103641.73;109622;1246;75828;-83
2023/02/08 11:42:48;;;;;;;12.90;5.40;;;;;;;-0.73;100.00;103644.33;109984;1244;69237;-85
2023/02/08 11:45:37;;;;;;;8.70;4.10;;;;;;;-0.67;100.00;103640.08;109952;1247;72654;-84
2023/02/08 11:48:34;;;;;;;10.80;4.80;;;;;;;-0.69;100.00;103642.02;109848;1247;59213;-84
2023/02/08 11:51:49;;;;;;;13.70;4.70;;;;;;;-0.72;100.00;103646.21;109972;1246;59603;-84
2023/02/08 11:54:40;;;;;;;12.10;5.30;;;;;;;-0.76;100.00;103646.02;109850;1246;72446;-84
2023/02/08 11:57:31;;;;;;;11.60;5.60;;;;;;;-0.76;100.00;103647.27;109794;1247;70290;-84
2023/02/08 12:00:22;;;;;;;12.80;5.50;;;;;;;-0.76;100.00;103646.04;109851;1248;71623;-84
2023/02/08 12:03:24;;;;;;;13.00;5.30;;;;;;;-0.80;100.00;103649.06;109866;1248;61341;-84
2023/02/08 12:06:16;;;;;;;14.30;5.30;;;;;;;-0.81;100.00;103654.88;109861;1248;60527;-84
2023/02/08 12:09:11;;;;;;;;;;;;;;;-0.77;100.00;103652.18;109812;1246;74902;-83
2023/02/08 12:12:04;;;;;;;15.40;5.50;;;;;;;-0.80;100.00;103658.71;109883;1247;69054;-84
2023/02/08 12:15:22;;;;;;;9.60;4.30;;;;;;;-0.81;100.00;103656.95;109843;1246;74326;-84
2023/02/08 12:18:23;;;;;;;11.70;4.60;;;;;;;-0.74;100.00;103650.67;109728;1246;60104;-84
2023/02/08 12:21:24;;;;;;;14.30;5.50;;;;;;;-0.76;100.00;103646.90;109895;1246;59326;-84
2023/02/08 12:24:31;;;;;;;14.00;5.30;;;;;;;-0.71;100.00;103651.30;109919;1248;74573;-84
2023/02/08 12:27:32;;;;;;;14.20;5.20;;;;;;;-0.73;100.00;103651.33;109795;1248;67889;-84
2023/02/08 12:30:29;;;;;;;12.80;5.30;;;;;;;-0.76;100.00;103647.95;109978;1245;71624;-84
2023/02/08 12:33:33;;;;;;;12.00;5.50;;;;;;;-0.76;100.00;103647.82;109727;1246;59132;-83
2023/02/08 12:43:39;;;;;;;10.60;4.40;;;;;;;-0.69;100.00;103652.73;109906;1246;67778;-84
2023/02/08 12:46:37;;;;;;;11.20;4.50;;;;;;;-0.68;100.00;103649.48;109886;1246;72087;-85
2023/02/08 12:49:31;;;;;;;14.40;5.10;;;;;;;-0.64;100.00;103645.89;109954;1245;60832;-85
2023/02/08 12:52:38;;;;;;;11.40;4.10;;;;;;;-0.66;100.00;103642.98;109808;1245;61474;-85
2023/02/08 12:55:34;;;;;;;11.30;4.80;;;;;;;-0.62;100.00;103644.65;109986;1247;75054;-84
2023/02/08 12:58:28;;;;;;;7.50;4.00;;;;;;;-0.57;100.00;103643.73;109655;1247;69754;-85
2023/02/08 13:01:20;;;;;;;10.10;4.40;;;;;;;-0.59;100.00;103640.80;109653;1247;73469;-84
2023/02/08 13:04:18;;;;;;;13.30;4.80;;;;;;;-0.62;100.00;103640.18;109778;1244;59260;-84
2023/02/08 13:07:12;;;;;;;16.80;6.20;;;;;;;-0.53;100.00;103645.51;109856;1247;59198;-84